TimeCST,TemperatureF,Dew PointF,Humidity,Sea Level PressureIn,VisibilityMPH,Wind Direction,Wind SpeedMPH,Gust SpeedMPH,PrecipitationIn,Events,Conditions,WindDirDegrees,DateUTC
12:52 AM,7.0,1.0,77,30.66,10.0,NW,8.1,-,N/A,,Clear,310,2013-12-07 06:52:00
1:52 AM,6.1,1.0,80,30.66,10.0,NW,6.9,-,N/A,,Clear,320,2013-12-07 07:52:00
2:52 AM,5.0,-0.0,80,30.68,10.0,NW,9.2,-,N/A,,Clear,320,2013-12-07 08:52:00
3:52 AM,3.9,-0.9,80,30.69,10.0,NW,8.1,-,N/A,,Clear,320,2013-12-07 09:52:00
4:52 AM,3.0,-2.9,76,30.71,10.0,WNW,9.2,-,N/A,,Clear,300,2013-12-07 10:52:00
5:52 AM,1.9,-4.0,76,30.73,10.0,NW,10.4,-,N/A,,Clear,310,2013-12-07 11:52:00
6:52 AM,1.0,-4.0,79,30.75,10.0,NW,5.8,-,N/A,,Clear,310,2013-12-07 12:52:00
7:52 AM,1.9,-4.0,76,30.76,10.0,NW,6.9,-,N/A,,Clear,310,2013-12-07 13:52:00
8:52 AM,3.9,-2.9,73,30.78,10.0,NW,5.8,-,N/A,,Clear,320,2013-12-07 14:52:00
9:52 AM,6.1,-2.0,69,30.79,10.0,NW,5.8,-,N/A,,Clear,320,2013-12-07 15:52:00
10:52 AM,9.0,-0.0,67,30.79,10.0,WNW,4.6,-,N/A,,Clear,290,2013-12-07 16:52:00
11:52 AM,12.0,-0.0,59,30.75,10.0,WNW,8.1,-,N/A,,Clear,300,2013-12-07 17:52:00
12:52 PM,14.0,-0.0,54,30.73,10.0,NW,8.1,-,N/A,,Clear,320,2013-12-07 18:52:00
1:52 PM,16.0,-0.0,49,30.71,10.0,WNW,5.8,-,N/A,,Clear,290,2013-12-07 19:52:00
2:52 PM,17.1,-0.9,45,30.70,10.0,NNW,8.1,-,N/A,,Clear,330,2013-12-07 20:52:00
3:52 PM,16.0,-0.0,49,30.68,10.0,North,9.2,-,N/A,,Clear,360,2013-12-07 21:52:00
4:52 PM,10.9,-0.9,59,30.66,10.0,NNE,4.6,-,N/A,,Clear,30,2013-12-07 22:52:00
5:52 PM,10.0,-0.9,61,30.65,10.0,Calm,Calm,-,N/A,,Clear,0,2013-12-07 23:52:00
6:52 PM,9.0,-0.0,67,30.65,10.0,Calm,Calm,-,N/A,,Clear,0,2013-12-08 00:52:00
7:52 PM,8.1,-0.0,70,30.64,10.0,Calm,Calm,-,N/A,,Clear,0,2013-12-08 01:52:00
8:52 PM,9.0,-0.9,64,30.63,10.0,Calm,Calm,-,N/A,,Clear,0,2013-12-08 02:52:00
9:52 PM,7.0,-0.0,73,30.63,10.0,NNE,4.6,-,N/A,,Clear,30,2013-12-08 03:52:00
10:52 PM,10.9,3.0,70,30.64,10.0,NNE,4.6,-,N/A,,Clear,20,2013-12-08 04:52:00
11:52 PM,10.9,3.0,70,30.63,10.0,ENE,5.8,-,N/A,,Clear,60,2013-12-08 05:52:00